Time;durP1;ratioP1;P1;durP2;ratioP2;P2;SDS_P1;SDS_P2;PMS_P1;PMS_P2;Temp;Humidity;BMP_temperature;BMP_pressure;BME280_temperature;BME280_humidity;BME280_pressure;Samples;Min_cycle;Max_cycle;Signal;HPM_P1;HPM_P2
2023/05/18 00:02:02;;;;;;;17.58;6.68;;;4.90;99.90;;;;;;5056815;28;20049;-69
2023/05/18 00:04:30;;;;;;;20.73;6.72;;;4.80;99.90;;;;;;5052940;28;20040;-73
2023/05/18 00:06:55;;;;;;;14.30;6.32;;;4.80;99.90;;;;;;5069837;28;20040;-68
2023/05/18 00:09:25;;;;;;;16.83;6.43;;;4.80;99.90;;;;;;5067927;28;20037;-68
2023/05/18 00:11:54;;;;;;;19.23;7.15;;;4.70;99.90;;;;;;5069605;28;20048;-69
2023/05/18 00:14:20;;;;;;;14.50;6.63;;;4.70;99.90;;;;;;5069466;28;20032;-68
2023/05/18 00:16:47;;;;;;;12.80;6.03;;;4.70;99.90;;;;;;5069602;28;20060;-70
2023/05/18 00:19:13;;;;;;;20.40;6.82;;;4.60;99.90;;;;;;5070301;28;20024;-70
2023/05/18 00:21:40;;;;;;;19.77;6.22;;;4.60;99.90;;;;;;5069562;28;20480;-70
2023/05/18 00:24:09;;;;;;;16.50;7.07;;;4.60;99.90;;;;;;5068592;28;20024;-68
2023/05/18 00:26:38;;;;;;;19.55;6.95;;;4.60;99.90;;;;;;5069285;28;20037;-67
2023/05/18 00:29:04;;;;;;;15.68;6.30;;;4.60;99.90;;;;;;5069142;28;20037;-68
2023/05/18 00:31:35;;;;;;;15.82;6.38;;;4.50;99.90;;;;;;5060924;28;20021;-73
2023/05/18 00:34:10;;;;;;;15.68;6.53;;;4.50;99.90;;;;;;5066033;28;20028;-69
2023/05/18 00:36:37;;;;;;;17.15;6.75;;;4.50;99.90;;;;;;5069304;28;20090;-68
2023/05/18 00:39:04;;;;;;;16.92;6.30;;;4.50;99.90;;;;;;5069741;28;20387;-68
2023/05/18 00:41:30;;;;;;;14.50;6.50;;;4.40;99.90;;;;;;5068521;28;20052;-73
2023/05/18 00:43:56;;;;;;;16.23;6.70;;;4.30;99.90;;;;;;5067647;28;20075;-68
2023/05/18 00:46:24;;;;;;;14.15;5.97;;;4.20;99.90;;;;;;5069439;28;20040;-68
2023/05/18 00:48:50;;;;;;;15.10;6.85;;;4.20;99.90;;;;;;5068861;28;20089;-68
2023/05/18 00:51:17;;;;;;;17.20;7.32;;;4.10;99.90;;;;;;5067983;28;20028;-70
2023/05/18 00:53:43;;;;;;;16.35;6.70;;;4.10;99.90;;;;;;5068482;28;20025;-69
2023/05/18 00:56:11;;;;;;;15.02;6.55;;;4.00;99.90;;;;;;5069003;28;20409;-71
2023/05/18 00:58:38;;;;;;;17.25;6.90;;;4.00;99.90;;;;;;5067743;28;20489;-68
2023/05/18 01:01:04;;;;;;;14.25;6.43;;;4.00;99.90;;;;;;5068410;28;20369;-69
2023/05/18 01:03:33;;;;;;;11.98;6.28;;;4.00;99.90;;;;;;5068069;28;20037;-73
2023/05/18 01:05:58;;;;;;;14.00;6.32;;;4.00;99.90;;;;;;5069363;28;20029;-68
2023/05/18 01:08:26;;;;;;;16.10;6.60;;;4.10;99.90;;;;;;5069365;28;20028;-69
2023/05/18 01:11:22;;;;;;;17.48;6.90;;;4.10;99.90;;;;;;5068479;28;20636;-69
2023/05/18 01:13:59;;;;;;;16.77;6.10;;;4.00;99.90;;;;;;5061110;28;20039;-70
2023/05/18 01:16:33;;;;;;;15.35;7.10;;;4.00;99.90;;;;;;5069218;28;20085;-68
2023/05/18 01:19:15;;;;;;;18.35;6.95;;;4.00;99.90;;;;;;5065335;28;20067;-69
2023/05/18 01:22:07;;;;;;;16.05;6.65;;;4.00;99.90;;;;;;5067646;28;20337;-69
2023/05/18 01:24:47;;;;;;;12.55;6.28;;;4.10;99.90;;;;;;5068554;28;20373;-74
2023/05/18 01:27:15;;;;;;;15.32;6.85;;;4.10;99.90;;;;;;5068096;28;20042;-69
2023/05/18 01:29:44;;;;;;;19.35;7.35;;;4.10;99.90;;;;;;5067337;28;20388;-69
2023/05/18 01:32:17;;;;;;;16.35;6.80;;;4.10;99.90;;;;;;5058548;28;20021;-69
2023/05/18 01:34:43;;;;;;;12.13;6.45;;;4.00;99.90;;;;;;5068066;28;20536;-69
2023/05/18 01:37:09;;;;;;;14.90;6.75;;;3.90;99.90;;;;;;5068914;28;20024;-68
2023/05/18 01:39:35;;;;;;;16.23;7.13;;;3.80;99.90;;;;;;5066685;28;20424;-73
2023/05/18 01:42:05;;;;;;;16.17;7.10;;;3.70;99.90;;;;;;5066747;28;20108;-68
2023/05/18 01:44:40;;;;;;;14.45;6.45;;;3.70;99.90;;;;;;5066905;28;20769;-74
2023/05/18 01:47:16;;;;;;;13.55;6.15;;;3.70;99.90;;;;;;5066918;28;20117;-68
2023/05/18 01:49:51;;;;;;;16.75;6.97;;;3.70;99.90;;;;;;5066558;28;20499;-70
2023/05/18 01:52:28;;;;;;;17.92;6.90;;;3.60;99.90;;;;;;5068069;28;20024;-68
2023/05/18 01:54:57;;;;;;;14.40;6.90;;;3.60;99.90;;;;;;5068095;28;20028;-72
2023/05/18 01:57:26;;;;;;;18.08;6.68;;;3.60;99.90;;;;;;5066334;28;20056;-69
2023/05/18 01:59:53;;;;;;;14.75;6.65;;;3.60;99.90;;;;;;5060145;28;20052;-70
2023/05/18 02:02:19;;;;;;;15.02;6.18;;;3.60;99.90;;;;;;5058053;28;20508;-68
2023/05/18 02:04:45;;;;;;;16.20;6.88;;;3.60;99.90;;;;;;5066317;28;20031;-68
2023/05/18 02:07:11;;;;;;;18.08;6.78;;;3.60;99.90;;;;;;5067020;28;20147;-68
2023/05/18 02:09:37;;;;;;;20.13;6.95;;;3.50;99.90;;;;;;5067748;28;20420;-69
2023/05/18 02:12:03;;;;;;;14.93;6.93;;;3.50;99.90;;;;;;5065351;28;20106;-69
2023/05/18 02:14:28;;;;;;;16.00;6.80;;;3.50;99.90;;;;;;5066472;28;20036;-68
2023/05/18 02:16:56;;;;;;;17.42;6.72;;;3.40;99.90;;;;;;5067698;28;20028;-71
2023/05/18 02:19:22;;;;;;;15.43;6.82;;;3.50;99.90;;;;;;5068705;28;20028;-70
2023/05/18 02:21:47;;;;;;;15.15;6.70;;;3.50;99.90;;;;;;5066539;28;20542;-71
2023/05/18 02:24:13;;;;;;;15.07;6.85;;;3.50;99.90;;;;;;5067093;28;20055;-72
2023/05/18 02:26:39;;;;;;;14.77;7.00;;;3.50;99.90;;;;;;5064588;28;20052;-68
2023/05/18 02:29:05;;;;;;;13.77;5.95;;;3.50;99.90;;;;;;5068326;28;20067;-69
2023/05/18 02:31:31;;;;;;;12.38;5.95;;;3.50;99.90;;;;;;5058408;28;20137;-69
2023/05/18 02:33:57;;;;;;;13.15;6.15;;;3.50;99.90;;;;;;5047515;28;20048;-69
2023/05/18 02:36:23;;;;;;;15.90;6.65;;;3.50;99.90;;;;;;5065505;28;20126;-69
2023/05/18 02:38:48;;;;;;;13.73;6.07;;;3.40;99.90;;;;;;5067523;28;20028;-69
2023/05/18 02:41:14;;;;;;;15.27;6.82;;;3.30;99.90;;;;;;5065609;28;20029;-69
2023/05/18 02:43:40;;;;;;;15.82;6.07;;;3.30;99.90;;;;;;5067490;28;20033;-69
2023/05/18 02:46:06;;;;;;;15.35;7.25;;;3.20;99.90;;;;;;5066691;28;20117;-69
2023/05/18 02:48:32;;;;;;;13.27;6.15;;;3.10;99.90;;;;;;5066668;28;20436;-69
2023/05/18 02:50:58;;;;;;;13.68;6.20;;;3.10;99.90;;;;;;5065267;28;20025;-69
2023/05/18 02:53:23;;;;;;;12.48;6.10;;;3.10;99.90;;;;;;5067920;28;20057;-71
2023/05/18 02:55:55;;;;;;;16.60;6.80;;;3.10;99.90;;;;;;5067330;28;20039;-72
2023/05/18 02:58:24;;;;;;;14.65;6.30;;;3.10;99.90;;;;;;5051982;28;20055;-69
2023/05/18 03:00:51;;;;;;;19.70;6.70;;;3.10;99.90;;;;;;5053281;28;20032;-69
2023/05/18 03:03:17;;;;;;;18.90;7.25;;;3.10;99.90;;;;;;5070286;28;20428;-69
2023/05/18 03:05:43;;;;;;;17.00;6.50;;;3.10;99.90;;;;;;5066930;28;20461;-69
2023/05/18 03:08:09;;;;;;;17.95;7.10;;;3.10;99.90;;;;;;5071403;28;20082;-69
2023/05/18 03:10:35;;;;;;;12.38;5.80;;;3.00;99.90;;;;;;5069769;28;20032;-68
2023/05/18 03:13:02;;;;;;;16.48;7.18;;;3.00;99.90;;;;;;5050771;28;20029;-70
2023/05/18 03:15:30;;;;;;;14.88;6.90;;;3.00;99.90;;;;;;5064014;28;20033;-71
2023/05/18 03:17:58;;;;;;;19.95;7.15;;;3.00;99.90;;;;;;5071023;28;20283;-70
2023/05/18 03:20:25;;;;;;;20.13;6.38;;;2.90;99.90;;;;;;5070491;28;20024;-69
2023/05/18 03:22:50;;;;;;;14.23;6.18;;;2.90;99.90;;;;;;5069144;28;20035;-70
2023/05/18 03:25:16;;;;;;;15.80;6.68;;;2.80;99.90;;;;;;5067884;28;20048;-70
2023/05/18 03:27:42;;;;;;;17.70;7.20;;;2.80;99.90;;;;;;5068220;28;20036;-70
2023/05/18 03:30:08;;;;;;;15.65;6.72;;;2.80;99.90;;;;;;5069671;28;20068;-70
2023/05/18 03:32:35;;;;;;;16.70;6.85;;;2.80;99.90;;;;;;5051704;28;20372;-69
2023/05/18 03:35:03;;;;;;;18.80;6.43;;;2.90;99.90;;;;;;5056985;28;20114;-70
2023/05/18 03:37:30;;;;;;;14.00;6.28;;;2.80;99.90;;;;;;5072318;28;20024;-70
2023/05/18 03:40:13;;;;;;;15.00;6.60;;;2.80;99.90;;;;;;5070234;28;20484;-69
2023/05/18 03:42:40;;;;;;;13.18;6.03;;;2.80;99.90;;;;;;5062581;28;20387;-74
2023/05/18 03:45:07;;;;;;;15.82;6.85;;;2.80;99.90;;;;;;5068671;28;20044;-70
2023/05/18 03:47:33;;;;;;;15.07;6.57;;;2.70;99.90;;;;;;5070930;28;20041;-70
2023/05/18 03:49:58;;;;;;;14.43;6.50;;;2.60;99.90;;;;;;5068912;28;20028;-70
2023/05/18 03:52:24;;;;;;;11.90;5.82;;;2.50;99.90;;;;;;5069412;28;20029;-69
2023/05/18 03:54:52;;;;;;;15.02;6.05;;;2.50;99.90;;;;;;5067947;28;20028;-69
2023/05/18 03:57:17;;;;;;;17.23;6.63;;;2.50;99.90;;;;;;5067142;28;20032;-70
2023/05/18 03:59:44;;;;;;;13.73;6.13;;;2.40;99.90;;;;;;5063912;28;20033;-71
2023/05/18 04:02:10;;;;;;;12.60;5.88;;;2.30;99.90;;;;;;5065212;28;20052;-69
2023/05/18 04:04:40;;;;;;;15.40;6.72;;;2.30;99.90;;;;;;5069683;28;20032;-70
2023/05/18 04:07:07;;;;;;;14.73;6.40;;;2.40;99.90;;;;;;5067251;28;20043;-74
2023/05/18 04:09:32;;;;;;;13.48;5.68;;;2.40;99.90;;;;;;5064341;28;20036;-71
2023/05/18 04:11:58;;;;;;;14.40;6.30;;;2.50;99.90;;;;;;5067641;28;20035;-70
2023/05/18 04:14:26;;;;;;;16.23;6.63;;;2.50;99.90;;;;;;5068669;28;20367;-70
2023/05/18 04:16:53;;;;;;;14.10;6.47;;;2.60;99.90;;;;;;5067695;28;20043;-70
2023/05/18 04:19:20;;;;;;;12.88;6.28;;;2.70;99.90;;;;;;5063817;28;20112;-70
2023/05/18 04:21:47;;;;;;;16.58;5.72;;;2.60;99.90;;;;;;5067996;28;20037;-70
2023/05/18 04:24:13;;;;;;;14.60;6.63;;;2.60;99.90;;;;;;5070052;28;20357;-71
2023/05/18 04:26:40;;;;;;;18.05;7.07;;;2.70;99.90;;;;;;5063360;28;20039;-69
2023/05/18 04:29:06;;;;;;;14.98;6.32;;;2.80;99.90;;;;;;5069618;28;20052;-69
2023/05/18 04:31:33;;;;;;;13.95;5.90;;;2.90;99.90;;;;;;5070221;28;20032;-70
2023/05/18 04:33:59;;;;;;;13.57;6.35;;;3.10;99.90;;;;;;5067772;28;20062;-69
2023/05/18 04:36:29;;;;;;;19.95;6.35;;;3.30;99.90;;;;;;5067552;28;20471;-69
2023/05/18 04:38:57;;;;;;;16.40;6.28;;;3.40;99.90;;;;;;5069189;28;20029;-69
2023/05/18 04:41:26;;;;;;;17.48;7.38;;;3.50;99.90;;;;;;5069884;28;20056;-71
2023/05/18 04:43:52;;;;;;;14.13;6.57;;;3.70;99.90;;;;;;5068692;28;20588;-72
2023/05/18 04:46:18;;;;;;;16.88;6.63;;;3.90;99.90;;;;;;5060219;28;20115;-70
2023/05/18 04:48:48;;;;;;;14.57;6.32;;;4.10;99.90;;;;;;5052440;28;20116;-74
2023/05/18 04:51:20;;;;;;;16.58;6.70;;;4.20;99.90;;;;;;5049788;28;20025;-69
2023/05/18 04:53:48;;;;;;;14.48;6.85;;;4.30;99.90;;;;;;5066089;28;20036;-75
2023/05/18 04:56:15;;;;;;;14.18;6.45;;;4.50;99.90;;;;;;5067061;28;20361;-69
2023/05/18 04:58:44;;;;;;;15.13;6.22;;;4.70;99.90;;;;;;5069531;28;20063;-70
2023/05/18 05:01:11;;;;;;;16.85;6.70;;;4.70;99.90;;;;;;5064566;28;20021;-70
2023/05/18 05:03:37;;;;;;;15.52;6.93;;;4.70;99.90;;;;;;5067209;28;20062;-71
2023/05/18 05:06:03;;;;;;;17.13;6.80;;;4.70;99.90;;;;;;5065526;28;20032;-70
2023/05/18 05:08:28;;;;;;;16.98;6.70;;;4.90;99.90;;;;;;5066776;28;20033;-69
2023/05/18 05:10:54;;;;;;;16.90;6.75;;;5.20;99.90;;;;;;5066426;28;20032;-70
2023/05/18 05:13:19;;;;;;;16.88;7.15;;;5.40;99.90;;;;;;5063195;28;20083;-70
2023/05/18 05:15:45;;;;;;;17.45;6.57;;;5.50;99.90;;;;;;5062234;28;20452;-75
2023/05/18 05:18:11;;;;;;;14.48;6.40;;;5.50;99.90;;;;;;5057540;28;20769;-71
2023/05/18 05:20:36;;;;;;;18.05;6.68;;;5.60;99.90;;;;;;5059758;28;20033;-70
2023/05/18 05:23:02;;;;;;;16.10;6.43;;;5.60;99.90;;;;;;5062996;28;20469;-74
2023/05/18 05:25:27;;;;;;;17.63;6.72;;;5.60;99.90;;;;;;5064986;28;20115;-71
2023/05/18 05:27:53;;;;;;;19.83;6.90;;;5.70;99.90;;;;;;5066821;28;20032;-70
2023/05/18 05:30:18;;;;;;;18.65;6.78;;;5.80;99.90;;;;;;5065791;28;20032;-69
2023/05/18 05:32:44;;;;;;;15.82;6.65;;;6.00;99.90;;;;;;5055367;28;20024;-74
2023/05/18 05:35:10;;;;;;;21.10;8.02;;;6.10;99.90;;;;;;5053054;28;20040;-69
2023/05/18 05:37:35;;;;;;;16.80;7.03;;;6.30;99.90;;;;;;5047701;28;20778;-71
2023/05/18 05:40:02;;;;;;;18.23;7.03;;;6.30;99.90;;;;;;5057452;28;20033;-71
2023/05/18 05:42:28;;;;;;;16.00;6.78;;;6.30;99.90;;;;;;5047355;28;20123;-70
2023/05/18 05:44:54;;;;;;;15.00;5.78;;;6.40;99.90;;;;;;5063184;28;20432;-70
2023/05/18 05:47:20;;;;;;;14.38;5.60;;;6.60;99.90;;;;;;5066344;28;20079;-70
2023/05/18 05:49:46;;;;;;;13.27;5.60;;;6.90;99.90;;;;;;5057884;28;20136;-75
2023/05/18 05:52:11;;;;;;;16.52;5.35;;;7.00;99.90;;;;;;5067985;28;20103;-70
2023/05/18 05:54:37;;;;;;;16.05;5.65;;;7.20;99.90;;;;;;5066350;28;20040;-72
2023/05/18 05:57:03;;;;;;;21.30;5.97;;;7.30;99.90;;;;;;5059289;28;20953;-70
2023/05/18 05:59:28;;;;;;;16.10;5.30;;;7.50;99.90;;;;;;5061671;28;20097;-70
2023/05/18 06:01:54;;;;;;;16.85;5.47;;;7.60;99.90;;;;;;5065934;28;20509;-67
2023/05/18 06:04:20;;;;;;;17.13;5.13;;;7.70;99.90;;;;;;5067698;28;20060;-70
2023/05/18 06:06:47;;;;;;;16.98;5.70;;;7.80;99.90;;;;;;5068554;28;20040;-69
2023/05/18 06:09:12;;;;;;;15.75;5.22;;;8.00;99.90;;;;;;5065309;28;20045;-71
2023/05/18 06:11:38;;;;;;;14.63;5.78;;;8.00;99.90;;;;;;5068407;28;20055;-71
2023/05/18 06:14:04;;;;;;;11.38;4.80;;;8.20;99.90;;;;;;5065365;28;20021;-71
2023/05/18 06:16:29;;;;;;;16.77;5.15;;;8.30;99.90;;;;;;5057789;28;20116;-70
2023/05/18 06:18:55;;;;;;;12.50;4.95;;;8.50;99.90;;;;;;5066376;28;20060;-69
2023/05/18 06:21:21;;;;;;;19.67;5.90;;;8.60;99.90;;;;;;5061921;28;20025;-71
2023/05/18 06:23:47;;;;;;;13.73;5.28;;;8.80;99.90;;;;;;5067052;28;20032;-75
2023/05/18 06:26:13;;;;;;;13.85;4.95;;;8.90;99.90;;;;;;5067582;28;20047;-72
2023/05/18 06:28:38;;;;;;;19.92;5.30;;;9.10;99.90;;;;;;5064961;28;20040;-70
2023/05/18 06:31:04;;;;;;;16.88;5.15;;;9.40;99.90;;;;;;5058603;28;20102;-70
2023/05/18 06:33:30;;;;;;;12.25;4.93;;;9.40;99.90;;;;;;5071116;28;20020;-69
2023/05/18 06:35:56;;;;;;;11.68;4.55;;;9.40;99.90;;;;;;5071416;28;20043;-70
2023/05/18 06:38:22;;;;;;;11.45;4.07;;;9.50;99.90;;;;;;5072101;28;20044;-70
2023/05/18 06:40:47;;;;;;;15.30;5.28;;;9.70;99.90;;;;;;5070105;28;20388;-71
2023/05/18 06:43:13;;;;;;;17.73;5.03;;;9.70;99.90;;;;;;5068770;28;20085;-71
2023/05/18 06:45:39;;;;;;;14.27;4.45;;;9.90;99.90;;;;;;5071259;28;20516;-70
2023/05/18 06:48:05;;;;;;;16.17;4.70;;;10.00;99.90;;;;;;5070172;28;20031;-69
2023/05/18 06:50:30;;;;;;;13.95;4.80;;;10.10;99.90;;;;;;5066645;28;20039;-72
2023/05/18 06:52:56;;;;;;;16.98;4.65;;;10.20;99.90;;;;;;5070649;28;20060;-75
2023/05/18 06:55:21;;;;;;;16.30;4.55;;;10.40;99.90;;;;;;5070613;28;20086;-71
2023/05/18 06:57:47;;;;;;;12.77;4.22;;;10.60;99.90;;;;;;5066064;28;20033;-69
2023/05/18 07:00:13;;;;;;;11.32;4.38;;;10.80;99.90;;;;;;5060537;28;20817;-68
2023/05/18 07:02:42;;;;;;;12.20;5.07;;;11.00;99.90;;;;;;5063172;28;20059;-68
2023/05/18 07:05:08;;;;;;;16.80;4.38;;;11.20;99.90;;;;;;5070734;28;20059;-68
2023/05/18 07:07:35;;;;;;;11.25;4.10;;;11.10;99.90;;;;;;5069467;28;20021;-68
2023/05/18 07:10:02;;;;;;;13.50;4.05;;;11.10;99.90;;;;;;5050818;28;20109;-70
2023/05/18 07:12:28;;;;;;;14.88;4.45;;;11.40;99.90;;;;;;5067005;28;20025;-69
2023/05/18 07:14:54;;;;;;;10.27;3.97;;;11.50;99.90;;;;;;5065651;28;20096;-73
2023/05/18 07:17:19;;;;;;;16.30;4.20;;;11.60;99.90;;;;;;5071386;28;20114;-68
2023/05/18 07:19:45;;;;;;;17.25;4.45;;;11.60;99.90;;;;;;5066818;28;20045;-69
2023/05/18 07:22:11;;;;;;;14.43;4.40;;;11.70;99.90;;;;;;5051166;28;20649;-69
2023/05/18 07:24:36;;;;;;;16.75;4.97;;;11.70;99.90;;;;;;5070755;28;20111;-69
2023/05/18 07:27:02;;;;;;;14.13;3.63;;;11.70;99.90;;;;;;5068426;28;20056;-69
2023/05/18 07:29:29;;;;;;;15.57;4.15;;;11.90;99.90;;;;;;5057284;28;20395;-68
2023/05/18 07:31:54;;;;;;;17.35;4.40;;;12.00;99.90;;;;;;5059490;28;20037;-71
2023/05/18 07:34:20;;;;;;;13.18;4.38;;;12.20;99.90;;;;;;5056395;28;20441;-67
2023/05/18 07:36:46;;;;;;;11.77;4.28;;;12.40;99.90;;;;;;5057194;28;20551;-68
2023/05/18 07:39:17;;;;;;;10.18;4.25;;;12.30;99.90;;;;;;5061443;28;20021;-68
2023/05/18 07:41:44;;;;;;;13.98;4.07;;;12.50;99.90;;;;;;5065229;28;20063;-68
2023/05/18 07:44:11;;;;;;;12.90;3.70;;;12.70;99.90;;;;;;5070032;28;20103;-66
2023/05/18 07:46:36;;;;;;;12.00;3.55;;;12.80;99.90;;;;;;5070956;28;20469;-67
2023/05/18 07:49:02;;;;;;;9.60;3.78;;;12.70;99.90;;;;;;5070118;28;20032;-69
2023/05/18 07:51:28;;;;;;;15.13;3.92;;;12.50;99.90;;;;;;5069482;28;20086;-68
2023/05/18 07:53:54;;;;;;;12.02;4.97;;;12.60;99.90;;;;;;5069244;28;20529;-72
2023/05/18 07:56:19;;;;;;;14.32;3.90;;;12.60;99.90;;;;;;5069658;28;20103;-68
2023/05/18 07:58:45;;;;;;;14.65;4.40;;;12.70;99.90;;;;;;5070661;28;20032;-67
2023/05/18 08:01:11;;;;;;;14.20;4.53;;;12.70;99.90;;;;;;5062560;28;20100;-69
2023/05/18 08:03:36;;;;;;;14.35;4.40;;;12.90;99.90;;;;;;5050692;28;20132;-67
2023/05/18 08:06:02;;;;;;;12.07;3.95;;;13.00;99.90;;;;;;5049800;28;20454;-67
2023/05/18 08:08:28;;;;;;;15.23;4.07;;;12.90;99.90;;;;;;5050518;28;20040;-69
2023/05/18 08:10:53;;;;;;;18.15;4.25;;;13.00;99.90;;;;;;5065342;28;20385;-71
2023/05/18 08:13:19;;;;;;;14.68;4.18;;;13.10;99.90;;;;;;5068011;28;20419;-69
2023/05/18 08:15:45;;;;;;;11.27;3.75;;;13.30;99.90;;;;;;5070479;28;20710;-67
2023/05/18 08:18:11;;;;;;;13.70;3.88;;;13.20;99.90;;;;;;5051541;28;20066;-68
2023/05/18 08:20:37;;;;;;;11.38;4.25;;;13.40;99.90;;;;;;5070049;28;20525;-67
2023/05/18 08:23:03;;;;;;;13.73;4.03;;;13.50;99.90;;;;;;5069485;28;20029;-68
2023/05/18 08:25:28;;;;;;;13.75;3.65;;;13.60;99.90;;;;;;5070196;28;20518;-68
2023/05/18 08:27:54;;;;;;;12.32;3.75;;;13.80;99.90;;;;;;5068020;28;20396;-71
2023/05/18 08:30:20;;;;;;;10.93;3.95;;;14.00;99.90;;;;;;5069402;28;20082;-67
2023/05/18 08:32:47;;;;;;;17.05;4.40;;;14.10;99.90;;;;;;5048916;28;20071;-67
2023/05/18 08:35:13;;;;;;;18.63;5.03;;;14.00;99.90;;;;;;5047883;28;20029;-67
2023/05/18 08:37:38;;;;;;;16.92;4.47;;;13.80;99.90;;;;;;5050320;28;20036;-66
2023/05/18 08:40:06;;;;;;;14.32;5.15;;;13.50;99.90;;;;;;5049122;28;20032;-67
2023/05/18 08:42:50;;;;;;;14.82;4.85;;;13.40;99.90;;;;;;5056750;28;20063;-68
2023/05/18 08:45:34;;;;;;;22.55;5.60;;;13.60;99.90;;;;;;5069022;28;20571;-65
2023/05/18 08:48:01;;;;;;;19.10;5.13;;;14.00;99.90;;;;;;5068379;28;20039;-71
2023/05/18 08:50:30;;;;;;;15.07;4.38;;;14.20;99.90;;;;;;5070033;28;20070;-68
2023/05/18 08:53:00;;;;;;;12.18;4.22;;;14.50;99.90;;;;;;5066332;28;20036;-71
2023/05/18 08:55:27;;;;;;;14.35;4.55;;;14.70;99.90;;;;;;5068136;28;20037;-67
2023/05/18 08:57:56;;;;;;;12.55;4.00;;;14.80;99.90;;;;;;5069648;28;20056;-67
2023/05/18 09:00:23;;;;;;;14.40;4.47;;;14.60;99.90;;;;;;5067358;28;20086;-67
2023/05/18 09:02:49;;;;;;;15.75;5.03;;;14.70;99.90;;;;;;5047966;28;20096;-67
2023/05/18 09:05:16;;;;;;;10.93;4.22;;;14.60;99.90;;;;;;5048675;28;20025;-66
2023/05/18 09:07:43;;;;;;;14.27;4.82;;;14.70;99.90;;;;;;5054289;28;20081;-68
2023/05/18 09:10:10;;;;;;;14.27;3.75;;;14.60;99.90;;;;;;5059968;28;20381;-68
2023/05/18 09:12:37;;;;;;;12.07;4.32;;;14.60;99.90;;;;;;5047922;28;20036;-67
2023/05/18 09:15:03;;;;;;;14.68;4.85;;;14.70;99.90;;;;;;5059555;28;20060;-67
2023/05/18 09:17:29;;;;;;;18.88;3.88;;;14.60;99.90;;;;;;5069229;28;20067;-65
2023/05/18 09:19:54;;;;;;;19.45;4.53;;;14.80;99.90;;;;;;5069051;28;20036;-66
2023/05/18 09:22:20;;;;;;;13.55;3.95;;;14.80;99.90;;;;;;5068333;28;20059;-66
2023/05/18 09:24:47;;;;;;;14.98;4.45;;;14.50;99.90;;;;;;5062355;28;20039;-67
2023/05/18 09:27:13;;;;;;;16.67;4.40;;;14.60;99.90;;;;;;5048300;28;20083;-67
2023/05/18 09:29:54;;;;;;;13.13;4.20;;;14.90;99.90;;;;;;5047524;28;20032;-67
2023/05/18 09:32:21;;;;;;;15.30;4.25;;;14.90;99.90;;;;;;5064354;28;20093;-65
2023/05/18 09:34:47;;;;;;;11.60;4.13;;;14.80;99.90;;;;;;5068975;28;20056;-68
2023/05/18 09:37:20;;;;;;;11.38;3.92;;;15.10;99.90;;;;;;5066837;28;20397;-67
2023/05/18 09:40:00;;;;;;;11.90;4.00;;;15.00;97.60;;;;;;5067337;28;20135;-67
2023/05/18 09:42:36;;;;;;;12.45;4.10;;;15.00;99.00;;;;;;5068611;28;20074;-65
2023/05/18 09:45:13;;;;;;;17.92;4.10;;;15.20;98.40;;;;;;5068249;28;20036;-71
2023/05/18 09:47:39;;;;;;;14.60;3.88;;;15.30;97.70;;;;;;5069117;28;20033;-66
2023/05/18 09:50:05;;;;;;;11.02;4.10;;;15.20;97.80;;;;;;5067947;28;20067;-66
2023/05/18 09:52:43;;;;;;;17.58;4.18;;;15.30;98.40;;;;;;5067233;28;20025;-67
2023/05/18 09:55:15;;;;;;;15.00;3.78;;;15.50;99.00;;;;;;5066265;28;20126;-67
2023/05/18 09:57:43;;;;;;;16.30;4.05;;;15.60;98.10;;;;;;5067280;28;20116;-69
2023/05/18 10:00:11;;;;;;;9.25;3.60;;;15.80;97.80;;;;;;5067012;28;20028;-68
2023/05/18 10:02:40;;;;;;;13.50;3.88;;;15.90;96.50;;;;;;5050008;28;20067;-67
2023/05/18 10:05:16;;;;;;;12.35;4.18;;;16.00;96.50;;;;;;5045885;28;20222;-67
2023/05/18 10:07:43;;;;;;;11.05;4.28;;;15.70;96.10;;;;;;5048657;28;20041;-68
2023/05/18 10:10:10;;;;;;;9.70;3.85;;;15.70;96.90;;;;;;5047763;28;20036;-68
2023/05/18 10:12:39;;;;;;;9.05;3.58;;;15.70;96.10;;;;;;5047972;28;20044;-65
2023/05/18 10:15:08;;;;;;;11.75;3.92;;;15.80;95.20;;;;;;5058688;28;20029;-71
2023/05/18 10:17:36;;;;;;;10.25;3.30;;;15.70;96.20;;;;;;5063056;28;20425;-68
2023/05/18 10:20:06;;;;;;;12.43;3.70;;;15.70;96.70;;;;;;5065372;28;20134;-73
2023/05/18 10:22:34;;;;;;;15.00;4.05;;;16.00;98.80;;;;;;5054964;28;20050;-68
2023/05/18 10:25:04;;;;;;;11.38;4.03;;;16.20;95.70;;;;;;5062902;28;20033;-68
2023/05/18 10:27:35;;;;;;;13.60;3.85;;;16.30;95.50;;;;;;5058474;28;20127;-69
2023/05/18 10:30:04;;;;;;;10.15;3.63;;;16.20;94.10;;;;;;5059295;28;20040;-69
2023/05/18 10:32:31;;;;;;;18.88;3.97;;;16.30;95.70;;;;;;5065087;28;20114;-69
2023/05/18 10:34:59;;;;;;;23.85;5.75;;;16.10;94.60;;;;;;5059897;28;20469;-69
2023/05/18 10:37:29;;;;;;;8.85;3.60;;;16.10;95.90;;;;;;5054921;28;20025;-70
2023/05/18 10:39:57;;;;;;;9.00;3.58;;;16.10;96.30;;;;;;5056587;28;20032;-69
2023/05/18 10:42:25;;;;;;;8.75;3.40;;;16.40;95.10;;;;;;5066806;28;20032;-70
2023/05/18 10:44:56;;;;;;;8.32;3.72;;;16.40;94.30;;;;;;5056810;28;20056;-69
2023/05/18 10:47:26;;;;;;;16.55;4.43;;;16.60;96.30;;;;;;5057227;28;20059;-70
2023/05/18 10:49:53;;;;;;;13.02;4.07;;;16.90;94.80;;;;;;5065388;28;20472;-70
2023/05/18 10:52:20;;;;;;;10.75;3.63;;;16.70;94.80;;;;;;5060948;28;20107;-67
2023/05/18 10:54:46;;;;;;;14.73;4.03;;;16.80;94.50;;;;;;5061237;28;20477;-69
2023/05/18 10:57:15;;;;;;;12.85;4.10;;;17.10;95.20;;;;;;5062756;28;20055;-70
2023/05/18 10:59:43;;;;;;;10.40;3.78;;;17.00;94.90;;;;;;5063313;28;20580;-69
2023/05/18 11:02:17;;;;;;;9.55;3.05;;;17.20;94.20;;;;;;5061103;28;20036;-70
2023/05/18 11:04:46;;;;;;;12.95;3.65;;;17.60;94.00;;;;;;5063938;28;20032;-70
2023/05/18 11:07:12;;;;;;;17.80;4.10;;;17.20;93.60;;;;;;5061411;28;20098;-70
2023/05/18 11:09:43;;;;;;;10.55;3.55;;;16.60;94.20;;;;;;5062089;28;20036;-69
2023/05/18 11:12:14;;;;;;;9.98;3.60;;;16.80;94.50;;;;;;5060852;28;20104;-70
2023/05/18 11:14:51;;;;;;;14.90;3.85;;;17.00;94.40;;;;;;5055737;28;20361;-69
2023/05/18 11:17:19;;;;;;;9.05;3.25;;;16.70;92.20;;;;;;5064158;28;20384;-70
2023/05/18 11:20:11;;;;;;;11.50;3.85;;;16.50;92.20;;;;;;5068292;28;20021;-69
2023/05/18 11:22:46;;;;;;;11.93;3.13;;;16.80;92.60;;;;;;5065198;28;20492;-70
2023/05/18 11:25:24;;;;;;;11.77;3.10;;;17.30;92.80;;;;;;5070286;28;20135;-71
2023/05/18 11:27:55;;;;;;;12.20;2.97;;;17.50;91.40;;;;;;5055076;28;20151;-70
2023/05/18 11:30:39;;;;;;;9.35;3.38;;;17.50;91.10;;;;;;5065987;28;20032;-68
2023/05/18 11:33:16;;;;;;;8.40;2.95;;;17.60;90.30;;;;;;5065081;28;20035;-74
2023/05/18 11:35:59;;;;;;;8.27;2.92;;;17.50;90.30;;;;;;5069421;28;20040;-69
2023/05/18 11:39:03;;;;;;;9.40;3.17;;;17.50;90.30;;;;;;5057588;28;20618;-69
2023/05/18 11:41:34;;;;;;;11.82;3.30;;;17.00;87.20;;;;;;5065668;28;20481;-69
2023/05/18 11:44:15;;;;;;;11.20;2.92;;;17.20;88.30;;;;;;5054711;28;20086;-70
2023/05/18 11:47:04;;;;;;;8.52;3.15;;;17.60;89.60;;;;;;5063756;28;20389;-70
2023/05/18 11:49:44;;;;;;;8.23;2.80;;;18.10;90.50;;;;;;5068168;28;20476;-70
2023/05/18 11:52:23;;;;;;;7.40;2.45;;;18.50;87.80;;;;;;5053741;28;20041;-73
2023/05/18 11:54:57;;;;;;;10.88;2.75;;;18.60;88.20;;;;;;5065665;28;20029;-69
2023/05/18 11:57:41;;;;;;;10.52;3.08;;;18.70;86.40;;;;;;5067424;28;20039;-69
2023/05/18 12:00:13;;;;;;;14.18;3.00;;;18.50;86.40;;;;;;5068306;28;20072;-73
2023/05/18 12:02:43;;;;;;;9.68;3.25;;;18.70;83.60;;;;;;5063621;28;20441;-69
2023/05/18 12:05:09;;;;;;;7.80;2.95;;;18.20;83.80;;;;;;5068913;28;20044;-73
2023/05/18 12:07:37;;;;;;;9.40;2.67;;;18.20;86.50;;;;;;5060462;28;20075;-70
2023/05/18 12:10:05;;;;;;;7.82;3.00;;;18.00;85.10;;;;;;5069008;28;20104;-70
2023/05/18 12:12:32;;;;;;;12.07;2.88;;;18.40;87.30;;;;;;5066915;28;20051;-70
2023/05/18 12:15:04;;;;;;;7.47;2.65;;;18.90;89.30;;;;;;5070332;28;20055;-69
2023/05/18 12:17:45;;;;;;;11.15;3.05;;;18.50;82.80;;;;;;5065858;28;20217;-69
2023/05/18 12:20:14;;;;;;;11.38;3.00;;;17.20;82.10;;;;;;5069391;28;20036;-72
2023/05/18 12:22:40;;;;;;;9.20;3.03;;;16.80;85.20;;;;;;5068446;28;20025;-69
2023/05/18 12:25:07;;;;;;;13.82;3.00;;;16.70;87.80;;;;;;5068779;28;20631;-70
2023/05/18 12:27:42;;;;;;;11.40;3.58;;;17.10;88.00;;;;;;5060530;28;20044;-70
2023/05/18 12:30:14;;;;;;;13.13;2.70;;;17.60;85.10;;;;;;5066504;28;20036;-74
2023/05/18 12:32:45;;;;;;;13.80;3.08;;;18.00;86.10;;;;;;5064575;28;20047;-70
2023/05/18 12:35:11;;;;;;;13.65;3.17;;;18.40;83.90;;;;;;5066732;28;20415;-73
2023/05/18 12:37:44;;;;;;;8.32;2.58;;;18.00;81.50;;;;;;5058037;28;20033;-69
2023/05/18 12:40:11;;;;;;;14.63;3.33;;;17.70;84.30;;;;;;5066304;28;20119;-73
2023/05/18 12:42:37;;;;;;;9.23;2.72;;;18.00;84.20;;;;;;5066743;28;20036;-70
2023/05/18 12:45:03;;;;;;;11.93;2.72;;;17.90;80.90;;;;;;5068568;28;20121;-71
2023/05/18 12:47:31;;;;;;;10.85;2.95;;;17.60;81.30;;;;;;5054923;28;20607;-69
2023/05/18 12:50:01;;;;;;;9.05;3.25;;;18.00;88.50;;;;;;5062829;28;20036;-69